Terminal Aerodrome Forecast
Issued by NWS

Home | Current Version | Previous Version | Text Only | Print | Product List | Glossary On
Versions: 1 2 3 4 5 6 7 8 9 10 11 12 13 14 15 16
248
FTUS45 KVEF 220520
TAFEED
TAF
KEED 220520Z 2206/2306 25008KT P6SM BKN200
     FM221200 23010KT P6SM SCT080 BKN120
     FM221800 19012KT P6SM VCSH SCT050 OVC070 PROB30 2218/2224 -RA
      OVC050
     FM230000 16011KT P6SM -RA SCT030 OVC050=

USA.gov is the U.S. government's official web portal to all federal, state and local government web resources and services.